Time;durP1;ratioP1;P1;durP2;ratioP2;P2;SDS_P1;SDS_P2;PMS_P1;PMS_P2;Temp;Humidity;BMP_temperature;BMP_pressure;BME280_temperature;BME280_humidity;BME280_pressure;Samples;Min_cycle;Max_cycle;Signal;HPM_P1;HPM_P2
2023/01/07 00:02:05;;;;;;;1.75;1.63;;;;;;;0.90;71.97;97156.50;5052745;28;20103;-65
2023/01/07 00:04:32;;;;;;;1.83;1.52;;;;;;;0.92;71.85;97159.09;5052781;28;20465;-61
2023/01/07 00:06:59;;;;;;;4.60;1.80;;;;;;;0.93;71.89;97168.59;5052592;28;20049;-64
2023/01/07 00:09:26;;;;;;;2.90;1.73;;;;;;;0.93;71.44;97168.59;5052694;28;20049;-60
2023/01/07 00:11:54;;;;;;;3.97;2.00;;;;;;;0.82;71.40;97171.91;5052548;28;20049;-64
2023/01/07 00:14:21;;;;;;;3.17;2.10;;;;;;;0.87;71.58;97174.50;5052576;28;20072;-62
2023/01/07 00:16:50;;;;;;;2.47;1.88;;;;;;;0.86;71.36;97165.94;5052492;28;20041;-64
2023/01/07 00:19:17;;;;;;;2.25;1.40;;;;;;;0.80;71.05;97165.00;5052632;28;20045;-64
2023/01/07 00:21:45;;;;;;;3.53;1.65;;;;;;;0.68;71.18;97169.16;5052526;28;20188;-63
2023/01/07 00:24:12;;;;;;;2.45;1.42;;;;;;;0.65;71.69;97176.84;5052473;28;20080;-60
2023/01/07 00:26:40;;;;;;;5.35;1.50;;;;;;;0.59;72.86;97162.22;5052392;28;20041;-63
2023/01/07 00:29:08;;;;;;;2.67;1.58;;;;;;;0.56;72.47;97167.31;5051620;28;20063;-61
2023/01/07 00:31:38;;;;;;;2.58;1.60;;;;;;;0.42;73.39;97168.88;5051982;28;20518;-62
2023/01/07 00:34:08;;;;;;;2.00;1.38;;;;;;;0.35;73.92;97166.22;5052319;28;20136;-61
2023/01/07 00:36:40;;;;;;;4.78;1.80;;;;;;;0.35;73.74;97160.19;5052309;28;20057;-64
2023/01/07 00:39:11;;;;;;;4.97;2.10;;;;;;;0.35;74.21;97162.75;5052303;28;20052;-64
2023/01/07 00:41:39;;;;;;;2.80;1.63;;;;;;;0.35;75.22;97162.75;5051976;28;20098;-61
2023/01/07 00:44:07;;;;;;;3.97;1.60;;;;;;;0.33;74.46;97152.44;5052119;28;20060;-62
2023/01/07 00:46:35;;;;;;;6.28;1.55;;;;;;;0.36;74.03;97154.22;5052038;28;20128;-64
2023/01/07 00:49:02;;;;;;;4.95;1.63;;;;;;;0.40;74.25;97155.09;5052026;28;20041;-64
2023/01/07 00:51:31;;;;;;;3.22;1.80;;;;;;;0.44;74.27;97162.88;5052063;28;20076;-63
2023/01/07 00:53:59;;;;;;;5.00;1.75;;;;;;;0.42;74.45;97151.69;5052012;28;20115;-65
2023/01/07 00:56:26;;;;;;;3.92;2.35;;;;;;;0.49;74.40;97150.06;5052036;28;20049;-64
2023/01/07 00:58:53;;;;;;;2.88;2.10;;;;;;;0.45;75.36;97146.56;5051897;28;20076;-63
2023/01/07 01:01:20;;;;;;;1.40;1.30;;;;;;;0.47;75.35;97150.06;5052032;28;20094;-63
2023/01/07 01:03:47;;;;;;;4.15;1.80;;;;;;;0.44;73.69;97151.72;5051861;28;20517;-61
2023/01/07 01:06:16;;;;;;;2.80;1.67;;;;;;;0.41;73.77;97154.25;5051887;28;20098;-63
2023/01/07 01:08:47;;;;;;;2.15;1.45;;;;;;;0.32;73.60;97140.44;5051809;28;20478;-64
2023/01/07 01:11:16;;;;;;;4.03;1.50;;;;;;;0.27;73.77;97136.91;5051777;28;20056;-61
2023/01/07 01:13:45;;;;;;;3.00;1.80;;;;;;;0.10;75.41;97137.59;5051700;28;20105;-62
2023/01/07 01:16:15;;;;;;;2.90;1.58;;;;;;;0.12;76.27;97143.59;5051724;28;20060;-61
2023/01/07 01:18:43;;;;;;;3.83;1.67;;;;;;;0.12;75.03;97155.63;5051656;28;20052;-61
2023/01/07 01:21:11;;;;;;;1.30;1.20;;;;;;;0.15;74.96;97154.78;5051571;28;20101;-64
2023/01/07 01:23:39;;;;;;;1.67;1.50;;;;;;;0.17;74.61;97150.50;5051413;28;20057;-64
2023/01/07 01:26:11;;;;;;;5.28;1.73;;;;;;;0.08;75.27;97151.25;5051437;28;20045;-61
2023/01/07 01:28:38;;;;;;;5.97;2.22;;;;;;;0.05;75.85;97148.66;5051533;28;20076;-63
2023/01/07 01:31:08;;;;;;;2.63;1.70;;;;;;;0.16;75.76;97148.78;5051382;28;20041;-61
2023/01/07 01:33:35;;;;;;;2.80;1.70;;;;;;;0.22;74.93;97149.75;5051406;28;20491;-64
2023/01/07 01:36:04;;;;;;;7.00;6.30;;;;;;;0.27;74.73;97136.06;5051422;28;20045;-64
2023/01/07 01:38:31;;;;;;;10.40;8.02;;;;;;;0.27;74.66;97143.78;5051224;28;20131;-64
2023/01/07 01:40:59;;;;;;;7.43;3.85;;;;;;;0.17;74.87;97145.38;5050800;28;20049;-63
2023/01/07 01:43:32;;;;;;;5.60;2.88;;;;;;;0.13;74.69;97141.91;5051064;28;20114;-62
2023/01/07 01:46:03;;;;;;;3.00;2.30;;;;;;;0.09;75.07;97143.56;5051202;28;20488;-62
2023/01/07 01:48:33;;;;;;;4.28;2.67;;;;;;;0.03;76.04;97138.31;5051127;28;20052;-61
2023/01/07 01:51:01;;;;;;;3.00;2.17;;;;;;;0.04;76.29;97131.47;5051180;28;20105;-60
2023/01/07 01:53:31;;;;;;;5.57;2.20;;;;;;;-0.04;76.44;97137.41;5050976;28;20051;-61
2023/01/07 01:56:03;;;;;;;4.75;2.47;;;;;;;0.00;76.40;97140.88;5051026;28;20097;-62
2023/01/07 01:58:36;;;;;;;3.35;1.98;;;;;;;0.01;75.95;97145.19;5050988;28;20041;-63
2023/01/07 02:01:03;;;;;;;3.45;1.98;;;;;;;-0.02;75.52;97147.72;5050965;28;20486;-61
2023/01/07 02:03:33;;;;;;;6.45;4.13;;;;;;;0.02;76.83;97151.16;5050793;28;20152;-61
2023/01/07 02:06:01;;;;;;;4.72;3.92;;;;;;;0.06;76.70;97156.38;5050932;28;20418;-62
2023/01/07 02:08:29;;;;;;;10.85;4.15;;;;;;;0.05;76.93;97158.94;5050860;28;20045;-62
2023/01/07 02:11:19;;;;;;;5.88;3.55;;;;;;;0.11;76.64;97159.91;5050900;28;20076;-61
2023/01/07 02:13:58;;;;;;;3.25;2.10;;;;;;;0.09;76.01;97165.88;5050756;28;20053;-61
2023/01/07 02:16:35;;;;;;;4.88;2.30;;;;;;;0.05;76.48;97161.50;5050831;28;20509;-62
2023/01/07 02:19:24;;;;;;;7.35;3.30;;;;;;;0.05;75.91;97166.66;5050702;28;20071;-60
2023/01/07 02:22:01;;;;;;;7.40;2.08;;;;;;;-0.01;76.00;97170.88;5050672;28;20106;-61
2023/01/07 02:25:03;;;;;;;2.60;2.00;;;;;;;0.00;75.85;97176.91;5050650;28;20053;-60
2023/01/07 02:28:05;;;;;;;5.20;2.30;;;;;;;-0.04;75.82;97186.28;5067657;28;20049;-59
2023/01/07 02:31:02;;;;;;;5.63;2.25;;;;;;;-0.11;75.68;97173.28;5047154;28;20045;-62
2023/01/07 02:33:57;;;;;;;4.80;1.92;;;;;;;-0.13;75.84;97175.84;5047874;28;20049;-62
2023/01/07 02:36:35;;;;;;;4.25;1.90;;;;;;;-0.15;75.95;97175.81;5050820;28;20041;-62
2023/01/07 02:39:20;;;;;;;5.22;1.88;;;;;;;-0.18;76.08;97170.63;5050395;28;20049;-64
2023/01/07 02:41:57;;;;;;;3.25;2.00;;;;;;;-0.23;76.88;97177.44;5050093;28;20132;-61
2023/01/07 02:44:34;;;;;;;4.32;2.03;;;;;;;-0.29;76.76;97169.59;5050219;28;20053;-63
2023/01/07 02:47:06;;;;;;;3.22;1.83;;;;;;;-0.35;76.53;97164.38;5050322;28;20053;-62
2023/01/07 02:49:35;;;;;;;2.25;2.00;;;;;;;-0.40;76.76;97165.16;5050375;28;20121;-63
2023/01/07 02:52:20;;;;;;;2.63;2.08;;;;;;;-0.37;76.87;97160.94;5049842;28;20053;-62
2023/01/07 02:54:54;;;;;;;3.67;1.98;;;;;;;-0.36;76.76;97153.22;5050066;28;20048;-60
2023/01/07 02:57:46;;;;;;;3.50;2.30;;;;;;;-0.42;77.32;97159.13;5050217;28;20041;-63
2023/01/07 03:00:29;;;;;;;3.22;1.83;;;;;;;-0.52;77.50;97167.53;5048524;28;20088;-64
2023/01/07 03:03:20;;;;;;;4.50;1.95;;;;;;;-0.46;77.79;97167.63;5050105;28;20171;-61
2023/01/07 03:06:03;;;;;;;5.28;1.98;;;;;;;-0.46;77.98;97164.19;5050047;28;20049;-63
2023/01/07 03:08:42;;;;;;;4.13;2.00;;;;;;;-0.50;77.62;97163.28;5050006;28;20482;-60
2023/01/07 03:11:11;;;;;;;4.33;3.30;;;;;;;-0.60;78.01;97148.56;5049989;28;20498;-62
2023/01/07 03:13:47;;;;;;;5.20;1.80;;;;;;;-0.56;77.88;97161.50;5049961;28;20350;-62
2023/01/07 03:16:22;;;;;;;2.42;1.90;;;;;;;-0.57;77.58;97174.31;5050033;28;20041;-59
2023/01/07 03:18:54;;;;;;;3.30;1.65;;;;;;;-0.64;77.29;97171.66;5049767;28;20128;-62
2023/01/07 03:21:25;;;;;;;2.92;1.60;;;;;;;-0.66;77.82;97165.59;5049839;28;20045;-61
2023/01/07 03:23:56;;;;;;;3.15;2.08;;;;;;;-0.74;77.62;97172.34;5049681;28;20056;-62
2023/01/07 03:26:28;;;;;;;2.63;1.63;;;;;;;-0.72;78.92;97162.09;5049755;28;20414;-62
2023/01/07 03:28:58;;;;;;;4.32;1.98;;;;;;;-0.67;79.48;97176.72;5049851;28;20451;-61
2023/01/07 03:31:27;;;;;;;3.67;2.40;;;;;;;-0.66;79.13;97173.31;5049780;28;20053;-63
2023/01/07 03:33:58;;;;;;;6.60;2.00;;;;;;;-0.64;79.12;97163.94;5049684;28;20051;-62
2023/01/07 03:36:33;;;;;;;2.10;1.90;;;;;;;-0.63;78.90;97162.25;5049577;28;20101;-62
2023/01/07 03:39:01;;;;;;;4.32;2.00;;;;;;;-0.59;79.63;97169.16;5049668;28;20106;-60
2023/01/07 03:44:13;;;;;;;2.33;1.45;;;;;;;-0.53;78.18;97163.25;5049625;28;20414;-63
2023/01/07 03:46:41;;;;;;;3.22;1.90;;;;;;;-0.65;78.31;97167.34;5049472;28;20128;-60
2023/01/07 03:49:08;;;;;;;2.45;2.08;;;;;;;-0.69;78.63;97162.97;5049572;28;20049;-61
2023/01/07 03:51:36;;;;;;;5.97;1.80;;;;;;;-0.68;78.83;97169.88;5049595;28;20105;-63
2023/01/07 03:54:04;;;;;;;3.92;1.88;;;;;;;-0.62;78.59;97165.66;5049472;28;20549;-63
2023/01/07 03:56:31;;;;;;;2.88;1.75;;;;;;;-0.62;77.65;97161.41;5049448;28;20048;-60
2023/01/07 03:58:58;;;;;;;6.35;1.92;;;;;;;-0.65;77.98;97166.47;5049356;28;20045;-62
2023/01/07 04:01:26;;;;;;;4.45;1.75;;;;;;;-0.71;78.33;97168.94;5049361;28;20049;-61
2023/01/07 04:03:53;;;;;;;2.08;1.70;;;;;;;-0.70;78.76;97171.53;5049906;28;20494;-62
2023/01/07 04:06:20;;;;;;;6.50;2.35;;;;;;;-0.74;78.79;97166.31;5052671;28;20080;-62
2023/01/07 04:08:49;;;;;;;5.15;1.98;;;;;;;-0.75;79.01;97174.88;5052718;28;20060;-61
2023/01/07 04:11:16;;;;;;;3.70;2.15;;;;;;;-0.83;78.44;97178.19;5052657;28;20045;-61
2023/01/07 04:13:43;;;;;;;3.75;2.20;;;;;;;-0.83;78.61;97180.75;5052895;28;20051;-60
2023/01/07 04:16:10;;;;;;;3.00;2.20;;;;;;;-0.87;79.05;97178.09;5052622;28;20049;-63
2023/01/07 04:18:38;;;;;;;4.32;2.38;;;;;;;-0.87;79.76;97178.09;5052539;28;20085;-62
2023/01/07 04:21:05;;;;;;;8.23;2.30;;;;;;;-0.85;79.63;97173.88;5052670;28;20041;-63
2023/01/07 04:23:32;;;;;;;3.92;2.47;;;;;;;-0.92;79.22;97171.19;5052478;28;20056;-63
2023/01/07 04:26:00;;;;;;;6.22;4.68;;;;;;;-0.88;79.25;97184.09;5052562;28;20049;-60
2023/01/07 04:28:27;;;;;;;10.38;6.25;;;;;;;-0.93;80.15;97189.13;5052447;28;20049;-60
2023/01/07 04:30:55;;;;;;;9.07;4.65;;;;;;;-0.89;80.38;97183.22;5052393;28;20052;-61
2023/01/07 04:33:22;;;;;;;5.40;3.70;;;;;;;-0.95;79.85;97189.09;5052365;28;20124;-64
2023/01/07 04:35:49;;;;;;;4.47;3.00;;;;;;;-0.97;79.98;97185.63;5052325;28;20041;-63
2023/01/07 04:38:17;;;;;;;5.72;3.20;;;;;;;-0.92;79.83;97188.28;5052282;28;20140;-61
2023/01/07 04:40:45;;;;;;;10.32;3.10;;;;;;;-0.88;79.55;97197.78;5052321;28;20053;-63
2023/01/07 04:43:13;;;;;;;10.50;4.30;;;;;;;-0.90;79.34;97192.59;5051961;28;20049;-63
2023/01/07 04:45:41;;;;;;;12.13;4.20;;;;;;;-0.86;79.15;97193.53;5052291;28;20113;-60
2023/01/07 04:48:08;;;;;;;10.05;3.78;;;;;;;-0.87;79.27;97204.66;5052157;28;20133;-63
2023/01/07 04:50:35;;;;;;;8.93;3.92;;;;;;;-0.85;79.26;97199.56;5052088;28;20045;-61
2023/01/07 04:53:02;;;;;;;8.80;4.15;;;;;;;-0.85;79.23;97202.13;5052070;28;20049;-63
2023/01/07 04:55:29;;;;;;;9.68;5.38;;;;;;;-0.87;79.48;97193.50;5052007;28;20098;-60
2023/01/07 04:57:56;;;;;;;8.25;3.78;;;;;;;-0.90;79.28;97202.03;5052067;28;20045;-63
2023/01/07 05:00:25;;;;;;;18.60;5.72;;;;;;;-0.94;79.88;97202.81;5052006;28;20049;-62
2023/01/07 05:02:53;;;;;;;10.93;4.95;;;;;;;-0.94;80.59;97207.94;5051876;28;20045;-61
2023/01/07 05:05:20;;;;;;;9.45;5.00;;;;;;;-0.85;80.68;97208.13;5051847;28;20053;-61
2023/01/07 05:07:47;;;;;;;7.70;5.20;;;;;;;-0.86;80.49;97208.97;5051860;28;20056;-62
2023/01/07 05:10:14;;;;;;;8.77;3.83;;;;;;;-0.83;80.13;97214.16;5051839;28;20045;-60
2023/01/07 05:12:42;;;;;;;12.85;5.38;;;;;;;-0.84;80.09;97216.69;5051836;28;20045;-60
2023/01/07 05:15:11;;;;;;;8.88;4.72;;;;;;;-0.85;80.65;97214.97;5051280;28;20049;-62
2023/01/07 05:17:44;;;;;;;7.97;4.22;;;;;;;-0.82;80.33;97208.16;5051360;28;20045;-64
2023/01/07 05:20:12;;;;;;;10.75;4.70;;;;;;;-0.80;79.88;97210.78;5051566;28;20057;-62
2023/01/07 05:22:39;;;;;;;7.45;3.97;;;;;;;-0.84;79.24;97204.69;5051527;28;20109;-63
2023/01/07 05:25:07;;;;;;;7.20;3.60;;;;;;;-0.83;78.53;97206.44;5051444;28;20051;-60
2023/01/07 05:27:35;;;;;;;6.65;3.53;;;;;;;-0.92;78.58;97217.44;5051507;28;20097;-60
2023/01/07 05:30:07;;;;;;;7.03;4.25;;;;;;;-0.99;78.84;97222.41;5051449;28;20547;-61
2023/01/07 05:32:34;;;;;;;6.60;3.65;;;;;;;-1.18;79.74;97225.50;5051473;28;20045;-63
2023/01/07 05:35:02;;;;;;;8.65;3.95;;;;;;;-1.36;80.80;97218.28;5051352;28;20088;-62
2023/01/07 05:37:30;;;;;;;7.18;3.92;;;;;;;-1.36;80.74;97214.88;5051368;28;20045;-61
2023/01/07 05:40:00;;;;;;;6.07;3.17;;;;;;;-1.28;80.58;97218.44;5051415;28;20052;-62
2023/01/07 05:42:27;;;;;;;9.45;3.72;;;;;;;-1.30;80.51;97217.53;5050947;28;20048;-61
2023/01/07 05:44:54;;;;;;;5.07;3.55;;;;;;;-1.27;80.17;97228.75;5051093;28;20099;-59
2023/01/07 05:47:25;;;;;;;7.90;3.65;;;;;;;-1.32;80.89;97224.34;5051322;28;20049;-61
2023/01/07 05:49:53;;;;;;;6.88;3.58;;;;;;;-1.33;81.06;97222.63;5051107;28;20045;-61
2023/01/07 05:52:22;;;;;;;5.18;3.80;;;;;;;-1.28;81.37;97221.88;5051184;28;20398;-63
2023/01/07 05:54:49;;;;;;;5.65;3.65;;;;;;;-1.19;81.41;97225.47;5051127;28;20060;-63
2023/01/07 05:57:17;;;;;;;14.25;4.53;;;;;;;-1.13;81.54;97229.84;5051163;28;20082;-60
2023/01/07 05:59:45;;;;;;;6.20;3.53;;;;;;;-1.06;81.64;97230.00;5051009;28;20045;-61
2023/01/07 06:02:13;;;;;;;9.43;3.65;;;;;;;-0.99;80.85;97227.56;5051012;28;20133;-60
2023/01/07 06:04:42;;;;;;;4.07;2.92;;;;;;;-0.97;80.21;97231.03;5050887;28;20131;-62
2023/01/07 06:07:11;;;;;;;5.60;3.35;;;;;;;-0.99;80.25;97233.56;5050859;28;20053;-60
2023/01/07 06:09:40;;;;;;;4.70;3.35;;;;;;;-1.00;80.49;97236.09;5050861;28;20100;-61
2023/01/07 06:12:07;;;;;;;9.32;3.25;;;;;;;-1.08;80.66;97244.50;5050904;27;20049;-62
2023/01/07 06:14:37;;;;;;;7.88;4.18;;;;;;;-1.03;80.64;97244.59;5050788;28;20097;-60
2023/01/07 06:17:04;;;;;;;7.38;4.30;;;;;;;-1.03;80.54;97242.91;5050757;28;20045;-61
2023/01/07 06:19:39;;;;;;;7.20;3.13;;;;;;;-1.02;80.36;97236.91;5050757;28;20045;-63
2023/01/07 06:22:07;;;;;;;5.00;3.53;;;;;;;-1.13;80.52;97229.84;5050794;28;20508;-63
2023/01/07 06:24:35;;;;;;;5.70;3.67;;;;;;;-0.97;81.13;97242.16;5050634;28;20085;-63
2023/01/07 06:27:03;;;;;;;8.35;3.72;;;;;;;-0.28;81.55;97246.78;5050548;28;20061;-62
2023/01/07 06:29:31;;;;;;;4.43;2.50;;;;;;;1.41;77.38;97240.38;5050512;28;20072;-63
2023/01/07 06:31:59;;;;;;;5.00;2.35;;;;;;;3.25;69.86;97234.56;5050476;28;20128;-64
2023/01/07 06:34:26;;;;;;;4.32;2.30;;;;;;;4.77;63.13;97230.16;5050547;28;20045;-60
2023/01/07 06:36:54;;;;;;;4.28;2.28;;;;;;;6.38;57.85;97236.88;5050552;28;20060;-66
2023/01/07 06:39:21;;;;;;;4.20;1.83;;;;;;;7.81;52.28;97238.53;5050686;28;20048;-63
2023/01/07 06:41:48;;;;;;;3.17;2.20;;;;;;;9.13;49.21;97240.53;5050269;28;20125;-65
2023/01/07 06:44:18;;;;;;;4.55;2.92;;;;;;;10.67;46.20;97240.41;5050270;28;20045;-65
2023/01/07 06:46:45;;;;;;;3.13;2.17;;;;;;;11.99;42.16;97246.13;5050396;28;20440;-63
2023/01/07 06:49:13;;;;;;;4.93;2.47;;;;;;;13.07;40.48;97247.75;5050482;28;20102;-62
2023/01/07 06:51:40;;;;;;;2.92;1.92;;;;;;;14.07;37.09;97242.19;5050366;28;20075;-64
2023/01/07 06:54:07;;;;;;;4.95;2.45;;;;;;;14.71;35.85;97242.16;5050157;28;20108;-66
2023/01/07 06:56:36;;;;;;;5.28;2.40;;;;;;;15.38;35.29;97246.28;5050195;28;20084;-65
2023/01/07 06:59:04;;;;;;;4.00;2.30;;;;;;;16.09;34.23;97244.72;5050244;28;20097;-66
2023/01/07 07:01:32;;;;;;;3.83;2.40;;;;;;;16.97;33.16;97245.59;5050320;28;20205;-64
2023/01/07 07:03:59;;;;;;;3.05;2.33;;;;;;;17.59;31.39;97239.66;5050282;28;20082;-65
2023/01/07 07:06:27;;;;;;;5.22;2.13;;;;;;;17.89;30.45;97241.53;5050106;28;20048;-63
2023/01/07 07:08:54;;;;;;;3.08;1.98;;;;;;;17.58;30.93;97242.41;5050036;28;20563;-65
2023/01/07 07:11:21;;;;;;;2.78;1.67;;;;;;;17.60;31.12;97244.00;5049959;28;20049;-65
2023/01/07 07:13:49;;;;;;;2.45;1.77;;;;;;;17.66;31.32;97248.97;5049943;28;20132;-63
2023/01/07 07:16:16;;;;;;;8.80;2.35;;;;;;;17.95;31.53;97245.63;5050018;28;20048;-62
2023/01/07 07:18:45;;;;;;;4.53;1.80;;;;;;;18.75;29.61;97247.22;5049913;28;20051;-63
2023/01/07 07:21:12;;;;;;;4.75;1.80;;;;;;;19.39;28.48;97247.84;5049897;28;20049;-62
2023/01/07 07:23:39;;;;;;;3.95;1.92;;;;;;;20.00;27.49;97243.97;5049982;28;20098;-63
2023/01/07 07:26:06;;;;;;;3.00;1.85;;;;;;;20.47;27.07;97247.16;5049702;28;20529;-62
2023/01/07 07:28:33;;;;;;;5.63;2.20;;;;;;;20.97;26.69;97243.78;5049871;28;20049;-63
2023/01/07 07:31:01;;;;;;;6.22;2.40;;;;;;;21.48;26.29;97244.69;5049599;28;20053;-64
2023/01/07 07:33:28;;;;;;;7.53;2.65;;;;;;;21.83;25.67;97246.63;5049962;28;20054;-65
2023/01/07 07:35:57;;;;;;;3.10;2.15;;;;;;;22.03;25.53;97247.00;5049819;28;20049;-66
2023/01/07 07:38:24;;;;;;;3.60;2.50;;;;;;;22.34;25.03;97243.88;5049687;28;20101;-62
2023/01/07 07:40:52;;;;;;;4.10;2.60;;;;;;;23.04;23.86;97243.06;5053207;28;20406;-66
2023/01/07 07:43:20;;;;;;;5.10;2.53;;;;;;;23.57;23.10;97238.97;5052878;28;20410;-66
2023/01/07 07:45:47;;;;;;;3.92;2.00;;;;;;;24.17;22.50;97237.78;5053172;28;20049;-64
2023/01/07 07:48:16;;;;;;;3.58;2.20;;;;;;;24.52;22.83;97230.41;5052979;28;20051;-63
2023/01/07 07:50:43;;;;;;;3.58;2.08;;;;;;;24.73;22.73;97230.44;5053265;28;20053;-64
2023/01/07 07:53:13;;;;;;;4.30;2.20;;;;;;;24.67;22.71;97229.13;5052936;28;20455;-66
2023/01/07 07:55:41;;;;;;;6.45;2.47;;;;;;;24.34;22.82;97234.53;5052983;28;20127;-63
2023/01/07 07:58:09;;;;;;;2.92;2.10;;;;;;;24.20;22.41;97224.16;5053040;28;20053;-63
2023/01/07 08:00:36;;;;;;;3.85;2.50;;;;;;;24.27;22.45;97233.34;5052827;28;20132;-63
2023/01/07 08:03:04;;;;;;;3.15;2.05;;;;;;;24.24;22.85;97230.94;5052795;28;20131;-63
2023/01/07 08:05:32;;;;;;;8.23;5.55;;;;;;;24.01;22.77;97222.97;5052762;28;20057;-62
2023/01/07 08:08:07;;;;;;;4.50;2.65;;;;;;;24.13;23.43;97228.25;5052772;28;20053;-63
2023/01/07 08:10:36;;;;;;;2.47;2.03;;;;;;;24.39;23.39;97228.81;5052696;28;20105;-66
2023/01/07 08:13:03;;;;;;;4.47;2.08;;;;;;;24.69;23.05;97226.31;5052719;28;20076;-64
2023/01/07 08:15:30;;;;;;;2.88;2.00;;;;;;;24.79;22.86;97232.59;5052703;28;20372;-65
2023/01/07 08:17:59;;;;;;;9.50;3.50;;;;;;;25.05;22.10;97226.84;5052552;28;20105;-64
2023/01/07 08:20:27;;;;;;;8.00;4.65;;;;;;;25.87;20.87;97226.00;5052619;28;20106;-62
2023/01/07 08:22:54;;;;;;;5.80;3.38;;;;;;;26.40;20.23;97221.28;5052542;28;20053;-63
2023/01/07 08:25:22;;;;;;;3.38;2.20;;;;;;;25.91;20.73;97227.41;5052531;28;20482;-63
2023/01/07 08:27:51;;;;;;;3.80;2.50;;;;;;;25.83;21.16;97224.59;5052485;28;20059;-66
2023/01/07 08:30:19;;;;;;;3.65;2.20;;;;;;;25.20;21.29;97227.31;5052455;28;20474;-65
2023/01/07 08:32:47;;;;;;;9.32;2.25;;;;;;;24.71;21.77;97230.56;5052338;28;20132;-62
2023/01/07 08:35:15;;;;;;;4.32;1.98;;;;;;;24.75;21.83;97220.47;5052256;28;20049;-63
2023/01/07 08:37:42;;;;;;;3.50;1.98;;;;;;;24.83;21.85;97220.63;5052272;28;20132;-62
2023/01/07 08:40:13;;;;;;;8.13;2.63;;;;;;;23.92;22.86;97219.22;5052274;28;20052;-66
2023/01/07 08:42:41;;;;;;;2.65;2.08;;;;;;;23.28;23.84;97220.75;5051997;28;20095;-66
2023/01/07 08:45:12;;;;;;;4.20;2.97;;;;;;;21.96;25.73;97216.44;5052053;28;20053;-63
2023/01/07 08:47:40;;;;;;;3.95;2.88;;;;;;;21.05;26.88;97214.00;5052139;28;20053;-64
2023/01/07 08:50:08;;;;;;;3.25;2.50;;;;;;;20.30;27.99;97216.38;5051398;28;20047;-65
2023/01/07 08:52:35;;;;;;;4.20;2.88;;;;;;;20.15;28.25;97205.84;5051709;28;20101;-65
2023/01/07 08:55:02;;;;;;;3.70;2.25;;;;;;;19.52;29.18;97210.75;5052108;28;20053;-63
2023/01/07 08:57:30;;;;;;;5.80;2.47;;;;;;;19.24;29.39;97210.72;5051975;28;20554;-62
2023/01/07 08:59:57;;;;;;;3.40;2.53;;;;;;;19.03;30.50;97204.94;5051890;28;20057;-66
2023/01/07 09:02:26;;;;;;;4.50;2.30;;;;;;;18.62;30.59;97198.56;5051880;28;20045;-64
2023/01/07 09:04:53;;;;;;;4.63;2.08;;;;;;;18.29;31.56;97197.84;5051805;28;20048;-65
2023/01/07 09:07:21;;;;;;;3.45;1.90;;;;;;;17.61;32.35;97198.09;5051877;28;20074;-66
2023/01/07 09:09:48;;;;;;;3.67;2.03;;;;;;;17.38;32.13;97196.75;5051861;28;20096;-65
2023/01/07 09:12:15;;;;;;;3.75;1.92;;;;;;;16.97;32.92;97190.09;5051845;28;20049;-66
2023/01/07 09:14:43;;;;;;;3.30;1.70;;;;;;;16.25;34.50;97189.38;5051699;28;20049;-62
2023/01/07 09:17:10;;;;;;;3.33;1.67;;;;;;;15.77;35.60;97175.88;5051715;28;20606;-63
2023/01/07 09:19:39;;;;;;;3.30;2.10;;;;;;;15.19;36.95;97181.22;5051893;28;20049;-62
2023/01/07 09:22:06;;;;;;;3.20;2.38;;;;;;;14.37;38.61;97177.81;5051774;28;20081;-65
2023/01/07 09:24:33;;;;;;;6.85;2.60;;;;;;;13.85;39.37;97172.03;5051667;28;20100;-65
2023/01/07 09:27:00;;;;;;;3.67;2.65;;;;;;;13.57;40.56;97172.34;5051542;28;20056;-61
2023/01/07 09:29:27;;;;;;;2.88;2.33;;;;;;;13.02;41.10;97166.50;5051524;28;20516;-62
2023/01/07 09:31:55;;;;;;;4.18;2.25;;;;;;;12.86;42.16;97163.59;5051835;28;20101;-62
2023/01/07 09:34:22;;;;;;;3.00;2.00;;;;;;;12.88;40.17;97159.13;5051419;28;20110;-62
2023/01/07 09:36:58;;;;;;;4.13;2.03;;;;;;;12.57;41.00;97158.50;5051407;28;20061;-64
2023/01/07 09:39:25;;;;;;;11.57;2.58;;;;;;;12.56;41.76;97153.31;5051311;28;20045;-65
2023/01/07 09:41:58;;;;;;;4.82;2.10;;;;;;;12.48;41.67;97143.09;5051158;28;20435;-64
2023/01/07 09:44:35;;;;;;;3.00;1.58;;;;;;;12.39;41.06;97133.78;5051281;28;20133;-65
2023/01/07 09:47:05;;;;;;;7.60;2.38;;;;;;;12.26;41.82;97136.00;5051346;28;20056;-62
2023/01/07 09:49:32;;;;;;;3.53;1.88;;;;;;;12.22;40.51;97123.91;5051309;28;20084;-64
2023/01/07 09:52:15;;;;;;;1.98;1.52;;;;;;;12.00;41.19;97125.47;5051198;28;20071;-61
2023/01/07 09:54:45;;;;;;;6.25;2.28;;;;;;;11.99;42.10;97115.91;5051221;28;20372;-62
2023/01/07 09:57:16;;;;;;;3.70;1.85;;;;;;;12.01;40.92;97113.19;5051111;28;20388;-66
2023/01/07 09:59:45;;;;;;;2.45;1.63;;;;;;;12.00;41.21;97109.75;5051155;28;20053;-64
2023/01/07 10:02:27;;;;;;;3.45;2.40;;;;;;;12.18;41.82;97098.69;5050688;28;20474;-64
2023/01/07 10:05:02;;;;;;;3.08;1.65;;;;;;;12.25;41.96;97101.03;5050815;28;20087;-64
2023/01/07 10:07:39;;;;;;;2.67;1.90;;;;;;;12.31;40.98;97089.47;5050913;28;20495;-63
2023/01/07 10:10:17;;;;;;;3.35;1.85;;;;;;;12.40;40.35;97082.19;5051207;28;20467;-62
2023/01/07 10:12:51;;;;;;;3.20;1.70;;;;;;;12.34;40.07;97080.66;5051096;28;20053;-65
2023/01/07 10:15:31;;;;;;;2.20;1.95;;;;;;;12.36;39.86;97076.19;5050930;28;20053;-66
2023/01/07 10:18:12;;;;;;;2.83;1.67;;;;;;;12.28;39.87;97073.81;5050735;28;20091;-67
2023/01/07 10:20:48;;;;;;;3.35;1.80;;;;;;;12.34;40.78;97072.78;5050685;28;20105;-64
2023/01/07 10:23:22;;;;;;;1.67;1.48;;;;;;;12.37;40.11;97075.25;5050654;28;20049;-66
2023/01/07 10:25:54;;;;;;;2.50;1.60;;;;;;;12.44;40.38;97068.03;5050530;28;20084;-64
2023/01/07 10:28:29;;;;;;;5.07;1.90;;;;;;;12.55;38.73;97067.63;5050635;28;20185;-63
2023/01/07 10:30:59;;;;;;;3.70;1.80;;;;;;;12.50;39.87;97059.94;5050549;28;20055;-62
2023/01/07 10:33:29;;;;;;;6.93;2.03;;;;;;;12.34;40.04;97051.78;5050493;28;20056;-65
2023/01/07 10:36:09;;;;;;;5.32;2.47;;;;;;;12.35;39.46;97051.72;5050448;28;20414;-65
2023/01/07 10:38:42;;;;;;;4.03;1.60;;;;;;;12.26;39.00;97059.94;5050471;28;20049;-63
2023/01/07 10:41:21;;;;;;;2.78;1.75;;;;;;;12.32;39.00;97051.84;5050401;28;20057;-66
2023/01/07 10:44:07;;;;;;;2.83;1.70;;;;;;;12.30;38.85;97048.41;5050357;28;20076;-65
2023/01/07 10:46:49;;;;;;;3.70;1.42;;;;;;;12.28;38.57;97042.34;5050160;28;20056;-63
2023/01/07 10:49:42;;;;;;;2.13;1.40;;;;;;;12.31;38.50;97034.38;5050329;28;20049;-64
2023/01/07 10:52:29;;;;;;;4.38;1.88;;;;;;;12.34;39.40;97028.19;5050225;28;20049;-63
2023/01/07 10:55:20;;;;;;;3.78;1.50;;;;;;;12.35;39.50;97040.38;5050217;28;20081;-66
2023/01/07 10:57:50;;;;;;;3.00;1.75;;;;;;;12.33;41.11;97034.31;5050302;28;20105;-63
2023/01/07 11:00:19;;;;;;;4.25;2.28;;;;;;;12.27;39.91;97032.78;5050120;28;20073;-64
2023/01/07 11:02:53;;;;;;;4.70;2.40;;;;;;;12.27;42.49;97027.53;5050056;28;20402;-65
2023/01/07 11:05:26;;;;;;;5.10;2.20;;;;;;;12.29;41.10;97020.47;5049897;28;20041;-64
2023/01/07 11:07:57;;;;;;;7.20;2.30;;;;;;;12.16;42.99;97021.84;5050254;28;20068;-63
2023/01/07 11:10:32;;;;;;;4.28;2.38;;;;;;;12.21;42.53;97018.13;5050133;28;20045;-64
2023/01/07 11:13:04;;;;;;;7.13;2.33;;;;;;;12.20;42.59;97012.94;5049896;27;20045;-62
2023/01/07 11:15:35;;;;;;;6.28;3.20;;;;;;;12.15;42.95;97012.25;5049737;27;20475;-63
2023/01/07 11:18:06;;;;;;;4.13;2.55;;;;;;;12.14;42.70;97019.28;5049934;28;20102;-66
2023/01/07 11:20:49;;;;;;;7.43;2.40;;;;;;;12.22;42.62;97011.13;5049978;28;20048;-65
2023/01/07 11:23:29;;;;;;;3.30;2.50;;;;;;;12.11;44.02;97009.75;5049921;28;20056;-66
2023/01/07 11:26:16;;;;;;;4.40;2.40;;;;;;;12.07;43.59;97004.69;5049763;28;20049;-63
2023/01/07 11:28:53;;;;;;;4.78;2.42;;;;;;;11.99;44.36;97008.41;5049670;28;20498;-65
2023/01/07 11:31:21;;;;;;;4.47;2.80;;;;;;;12.00;43.63;97007.50;5050034;28;20098;-64
2023/01/07 11:33:54;;;;;;;7.28;2.45;;;;;;;11.97;44.30;97009.34;5049806;28;20109;-67
2023/01/07 11:36:40;;;;;;;5.10;2.72;;;;;;;11.77;45.14;97003.06;5049733;28;20045;-64
2023/01/07 11:39:18;;;;;;;5.82;2.53;;;;;;;11.79;44.95;96997.75;5049619;28;20049;-66
2023/01/07 11:41:58;;;;;;;4.07;2.50;;;;;;;11.86;44.29;96994.88;5049567;28;20060;-65
2023/01/07 11:44:28;;;;;;;4.73;3.27;;;;;;;11.85;44.38;96995.78;5049562;28;20067;-65
2023/01/07 11:46:55;;;;;;;5.72;2.80;;;;;;;11.68;44.69;96988.50;5049567;28;20494;-65
2023/01/07 11:49:27;;;;;;;3.08;2.50;;;;;;;11.63;45.29;96982.59;5049878;28;20452;-64
2023/01/07 11:51:54;;;;;;;2.70;2.20;;;;;;;11.59;45.55;96984.44;5049717;28;20078;-62
2023/01/07 11:54:24;;;;;;;6.63;2.20;;;;;;;11.64;45.02;96981.69;5049546;28;20049;-64